createdAt,value
2022-08-10T00:00:31.577Z,0.80
2022-08-10T00:03:01.177Z,2.00
2022-08-10T00:05:28.517Z,1.17
2022-08-10T00:08:10.492Z,0.80
2022-08-10T00:10:37.335Z,0.77
2022-08-10T00:13:03.897Z,0.90
2022-08-10T00:15:52.335Z,0.70
2022-08-10T00:18:34.282Z,0.90
2022-08-10T00:21:02.355Z,1.20
2022-08-10T00:23:29.045Z,1.05
2022-08-10T00:25:55.894Z,1.02
2022-08-10T00:28:22.458Z,1.20
2022-08-10T00:30:49.038Z,1.00
2022-08-10T00:33:15.685Z,1.05
2022-08-10T00:35:42.510Z,0.80
2022-08-10T00:38:09.095Z,0.90
2022-08-10T00:40:37.996Z,0.93
2022-08-10T00:43:06.008Z,1.13
2022-08-10T00:45:32.868Z,1.08
2022-08-10T00:47:59.446Z,0.90
2022-08-10T00:50:26.174Z,0.98
2022-08-10T00:52:53.225Z,1.80
2022-08-10T00:55:20.889Z,1.10
2022-08-10T00:57:54.832Z,1.58
2022-08-10T01:00:23.005Z,1.02
2022-08-10T01:02:49.869Z,1.10
2022-08-10T01:05:16.679Z,1.13
2022-08-10T01:08:15.305Z,0.77
2022-08-10T01:12:38.621Z,1.23
2022-08-10T01:14:09.560Z,0.95
2022-08-10T01:16:51.136Z,1.20
2022-08-10T01:19:35.118Z,1.38
2022-08-10T01:22:20.757Z,1.02
2022-08-10T01:25:31.352Z,1.05
2022-08-10T01:28:24.285Z,1.33
2022-08-10T01:30:54.632Z,0.82
2022-08-10T01:33:57.896Z,1.10
2022-08-10T01:36:31.946Z,1.23
2022-08-10T01:39:03.500Z,0.98
2022-08-10T01:41:46.149Z,1.10
2022-08-10T01:44:27.512Z,1.17
2022-08-10T01:47:23.573Z,1.10
2022-08-10T01:49:56.086Z,0.95
2022-08-10T01:52:26.555Z,0.70
2022-08-10T01:54:56.597Z,1.08
2022-08-10T01:57:25.716Z,0.88
2022-08-10T01:59:58.635Z,0.90
2022-08-10T02:02:33.877Z,0.82
2022-08-10T02:05:03.469Z,0.95
2022-08-10T02:07:34.530Z,0.95
2022-08-10T02:10:09.681Z,0.90
2022-08-10T02:12:38.590Z,1.17
2022-08-10T02:15:10.685Z,0.93
2022-08-10T02:18:00.500Z,1.00
2022-08-10T02:20:39.990Z,0.95
2022-08-10T02:23:11.656Z,1.17
2022-08-10T02:25:43.390Z,1.00
2022-08-10T02:28:27.302Z,1.20
2022-08-10T02:31:23.012Z,0.95
2022-08-10T02:33:57.546Z,0.93
2022-08-10T02:36:29.539Z,0.90
2022-08-10T02:39:01.068Z,1.20
2022-08-10T02:42:18.259Z,1.30
2022-08-10T02:45:29.345Z,0.88
2022-08-10T02:47:52.589Z,0.95
2022-08-10T02:50:25.161Z,0.90
2022-08-10T02:53:00.141Z,0.95
2022-08-10T02:55:32.367Z,1.20
2022-08-10T02:58:13.292Z,1.42
2022-08-10T03:00:50.226Z,0.90
2022-08-10T03:03:23.778Z,1.05
2022-08-10T03:05:55.532Z,1.38
2022-08-10T03:08:25.901Z,0.90
2022-08-10T03:10:54.730Z,0.90
2022-08-10T03:13:23.076Z,1.30
2022-08-10T03:15:51.562Z,1.05
2022-08-10T03:18:19.995Z,1.30
2022-08-10T03:20:47.659Z,1.25
2022-08-10T03:23:17.453Z,1.23
2022-08-10T03:25:53.692Z,1.17
2022-08-10T03:28:30.184Z,0.95
2022-08-10T03:30:59.527Z,1.13
2022-08-10T03:33:28.746Z,1.00
2022-08-10T03:36:43.262Z,1.10
2022-08-10T03:38:43.659Z,1.30
2022-08-10T03:41:16.043Z,1.02
2022-08-10T03:43:47.758Z,0.80
2022-08-10T03:46:17.177Z,1.60
2022-08-10T03:48:48.645Z,1.48
2022-08-10T03:51:17.487Z,1.02
2022-08-10T03:54:03.634Z,1.60
2022-08-10T03:56:32.791Z,1.05
2022-08-10T03:59:00.535Z,1.40
2022-08-10T04:02:46.141Z,1.10
2022-08-10T04:04:19.224Z,1.42
2022-08-10T04:06:51.397Z,1.17
2022-08-10T04:09:21.154Z,1.25
2022-08-10T04:11:47.990Z,1.08
2022-08-10T04:14:37.881Z,1.20
2022-08-10T04:17:01.180Z,1.38
2022-08-10T04:19:29.930Z,1.73
2022-08-10T04:22:13.715Z,1.20
2022-08-10T04:24:42.092Z,1.52
2022-08-10T04:27:09.350Z,1.27
2022-08-10T04:29:37.179Z,1.23
2022-08-10T04:32:05.119Z,1.60
2022-08-10T04:34:33.496Z,1.67
2022-08-10T04:37:08.647Z,1.45
2022-08-10T04:39:36.018Z,1.35
2022-08-10T04:42:03.729Z,1.17
2022-08-10T04:44:30.997Z,1.13
2022-08-10T04:46:59.540Z,1.10
2022-08-10T04:49:55.373Z,1.58
2022-08-10T04:52:13.566Z,1.40
2022-08-10T04:54:43.149Z,1.20
2022-08-10T04:57:12.742Z,1.15
2022-08-10T04:59:41.094Z,1.10
2022-08-10T05:02:22.003Z,1.60
2022-08-10T05:04:54.125Z,1.20
2022-08-10T05:07:20.836Z,1.13
2022-08-10T05:10:04.179Z,1.58
2022-08-10T05:12:38.497Z,1.33
2022-08-10T05:15:11.057Z,1.55
2022-08-10T05:17:38.815Z,1.20
2022-08-10T05:20:08.505Z,1.05
2022-08-10T05:22:45.971Z,1.25
2022-08-10T05:25:15.407Z,1.15
2022-08-10T05:27:44.879Z,1.25
2022-08-10T05:30:15.203Z,1.30
2022-08-10T05:32:58.284Z,1.20
2022-08-10T05:35:28.149Z,1.00
2022-08-10T05:38:09.461Z,1.55
2022-08-10T05:40:46.488Z,1.38
2022-08-10T05:43:19.874Z,1.08
2022-08-10T05:46:18.084Z,1.08
2022-08-10T05:48:58.222Z,1.05
2022-08-10T05:51:23.767Z,1.48
2022-08-10T05:54:03.362Z,1.38
2022-08-10T05:56:53.311Z,1.33
2022-08-10T06:00:29.333Z,1.50
2022-08-10T06:02:30.807Z,0.90
2022-08-10T06:05:09.633Z,1.15
2022-08-10T06:07:59.701Z,1.02
2022-08-10T06:10:32.725Z,1.50
2022-08-10T06:13:30.238Z,1.38
2022-08-10T06:16:10.407Z,1.10
2022-08-10T06:18:38.151Z,1.50
2022-08-10T06:21:06.765Z,1.05
2022-08-10T06:23:34.818Z,1.00
2022-08-10T06:26:09.552Z,1.15
2022-08-10T06:28:44.050Z,1.48
2022-08-10T06:31:46.549Z,1.50
2022-08-10T06:34:19.672Z,1.02
2022-08-10T06:36:48.230Z,1.10
2022-08-10T06:39:32.897Z,1.40
2022-08-10T06:42:33.622Z,1.27
2022-08-10T06:45:13.547Z,1.38
2022-08-10T06:48:02.865Z,1.30
2022-08-10T06:50:55.975Z,1.40
2022-08-10T06:53:53.727Z,1.30
2022-08-10T06:56:35.821Z,1.38
2022-08-10T06:59:21.997Z,1.20
2022-08-10T07:02:03.577Z,1.35
2022-08-10T07:04:34.870Z,1.30
2022-08-10T07:07:04.532Z,1.52
2022-08-10T07:09:35.677Z,1.45
2022-08-10T07:12:07.602Z,1.40
2022-08-10T07:14:42.536Z,2.22
2022-08-10T07:17:24.375Z,1.50
2022-08-10T07:20:01.801Z,2.03
2022-08-10T07:23:51.749Z,1.60
2022-08-10T07:25:25.208Z,1.42
2022-08-10T07:28:00.151Z,1.27
2022-08-10T07:30:35.859Z,2.28
2022-08-10T07:33:04.711Z,1.13
2022-08-10T07:35:41.725Z,1.40
2022-08-10T07:38:16.035Z,1.15
2022-08-10T07:40:44.023Z,1.38
2022-08-10T07:43:12.614Z,1.30
2022-08-10T07:45:42.582Z,1.10
2022-08-10T07:48:14.739Z,1.67
2022-08-10T07:50:42.765Z,1.40
2022-08-10T07:53:13.655Z,1.35
2022-08-10T07:56:04.373Z,1.90
2022-08-10T07:58:31.870Z,3.03
2022-08-10T08:01:00.214Z,1.13
2022-08-10T08:03:29.424Z,1.20
2022-08-10T08:06:02.962Z,1.23
2022-08-10T08:08:33.750Z,1.23
2022-08-10T08:11:01.601Z,1.42
2022-08-10T08:13:29.565Z,10.85
2022-08-10T08:16:17.797Z,1.63
2022-08-10T08:18:58.426Z,1.95
2022-08-10T08:24:04.979Z,1.20
2022-08-10T08:24:32.489Z,2.10
2022-08-10T08:27:03.137Z,3.83
2022-08-10T08:29:33.853Z,3.60
2022-08-10T08:32:03.475Z,3.97
2022-08-10T08:34:36.458Z,3.58
2022-08-10T08:37:04.453Z,4.18
2022-08-10T08:39:33.215Z,3.72
2022-08-10T08:42:41.653Z,3.72
2022-08-10T08:45:29.662Z,3.92
2022-08-10T08:48:11.543Z,3.97
2022-08-10T08:50:57.842Z,3.78
2022-08-10T08:54:01.648Z,3.95
2022-08-10T08:57:07.550Z,3.70
2022-08-10T09:00:05.957Z,3.67
2022-08-10T09:02:54.878Z,3.70
2022-08-10T09:06:00.149Z,4.05
2022-08-10T09:08:32.510Z,3.45
2022-08-10T09:11:04.410Z,3.33
2022-08-10T09:13:48.923Z,3.00
2022-08-10T09:16:24.268Z,3.38
2022-08-10T09:19:05.724Z,3.72
2022-08-10T09:21:59.122Z,3.03
2022-08-10T09:24:52.120Z,3.10
2022-08-10T09:27:29.481Z,3.08
2022-08-10T09:30:08.486Z,3.65
2022-08-10T09:36:13.493Z,3.30
2022-08-10T09:36:22.447Z,3.42
2022-08-10T09:40:56.169Z,3.22
2022-08-10T09:42:23.938Z,3.08
2022-08-10T09:45:06.826Z,2.65
2022-08-10T09:48:01.003Z,3.25
2022-08-10T09:54:07.708Z,2.97
2022-08-10T09:57:44.422Z,2.80
2022-08-10T10:00:12.506Z,3.03
2022-08-10T10:03:01.987Z,2.97
2022-08-10T10:05:36.746Z,2.97
2022-08-10T10:08:14.998Z,2.92
2022-08-10T10:11:11.276Z,2.65
2022-08-10T10:14:02.475Z,2.90
2022-08-10T10:16:52.312Z,2.67
2022-08-10T10:19:55.522Z,2.97
2022-08-10T10:22:58.931Z,2.78
2022-08-10T10:26:18.743Z,2.80
2022-08-10T10:29:44.930Z,2.80
2022-08-10T10:32:43.459Z,2.55
2022-08-10T10:35:24.045Z,2.40
2022-08-10T10:38:01.861Z,2.58
2022-08-10T10:40:37.664Z,2.60
2022-08-10T10:43:26.061Z,2.85
2022-08-10T10:46:04.921Z,2.65
2022-08-10T10:48:46.887Z,2.55
2022-08-10T10:51:28.629Z,2.75
2022-08-10T10:54:21.085Z,2.30
2022-08-10T10:56:56.337Z,2.80
2022-08-10T10:59:55.481Z,2.33
2022-08-10T11:02:41.675Z,3.00
2022-08-10T11:05:31.470Z,4.28
2022-08-10T11:08:01.457Z,3.40
2022-08-10T11:10:35.823Z,2.53
2022-08-10T11:14:26.972Z,2.60
2022-08-10T11:16:28.694Z,2.40
2022-08-10T11:18:57.838Z,2.28
2022-08-10T11:21:24.504Z,2.67
2022-08-10T11:24:49.018Z,2.47
2022-08-10T11:27:02.523Z,2.40
2022-08-10T11:29:49.501Z,2.28
2022-08-10T11:32:44.107Z,2.35
2022-08-10T11:35:30.463Z,2.53
2022-08-10T11:38:31.162Z,2.63
2022-08-10T11:42:10.367Z,2.70
2022-08-10T11:44:13.391Z,2.45
2022-08-10T11:46:53.514Z,2.70
2022-08-10T11:49:34.006Z,2.33
2022-08-10T11:52:44.196Z,6.90
2022-08-10T11:55:19.351Z,2.80
2022-08-10T11:57:54.197Z,2.65
2022-08-10T12:00:24.080Z,2.47
2022-08-10T12:02:55.680Z,3.97
2022-08-10T12:05:46.451Z,2.95
2022-08-10T12:10:05.208Z,2.42
2022-08-10T12:11:18.118Z,2.53
2022-08-10T12:14:19.811Z,2.50
2022-08-10T12:16:48.868Z,2.65
2022-08-10T12:19:29.452Z,5.03
2022-08-10T12:22:31.011Z,4.30
2022-08-10T12:25:07.185Z,4.80
2022-08-10T12:27:53.298Z,2.80
2022-08-10T12:30:29.442Z,2.30
2022-08-10T12:33:09.270Z,3.35
2022-08-10T12:36:17.431Z,5.70
2022-08-10T12:38:47.604Z,2.30
2022-08-10T12:41:43.464Z,3.95
2022-08-10T12:44:22.377Z,2.55
2022-08-10T12:46:48.864Z,2.47
2022-08-10T12:49:28.559Z,3.30
2022-08-10T12:52:09.071Z,7.05
2022-08-10T12:54:37.377Z,4.10
2022-08-10T12:57:10.172Z,2.50
2022-08-10T12:59:43.311Z,2.45
2022-08-10T13:02:14.826Z,2.25
2022-08-10T13:04:44.044Z,2.20
2022-08-10T13:08:24.958Z,4.32
2022-08-10T13:10:04.104Z,8.02
2022-08-10T13:12:44.678Z,2.65
2022-08-10T13:15:45.744Z,2.22
2022-08-10T13:18:18.589Z,6.85
2022-08-10T13:20:53.545Z,2.72
2022-08-10T13:23:31.571Z,2.00
2022-08-10T13:26:01.047Z,2.15
2022-08-10T13:28:45.391Z,2.30
2022-08-10T13:31:18.298Z,2.20
2022-08-10T13:34:38.785Z,2.20
2022-08-10T13:36:42.117Z,3.13
2022-08-10T13:39:10.477Z,2.20
2022-08-10T13:41:45.684Z,2.17
2022-08-10T13:44:17.778Z,2.30
2022-08-10T13:46:53.689Z,2.50
2022-08-10T13:49:25.517Z,2.70
2022-08-10T13:51:57.899Z,2.45
2022-08-10T13:54:29.626Z,2.80
2022-08-10T13:56:57.851Z,2.92
2022-08-10T14:00:34.472Z,2.70
2022-08-10T14:02:21.854Z,4.07
2022-08-10T14:04:48.914Z,2.72
2022-08-10T14:07:17.853Z,2.50
2022-08-10T14:09:47.572Z,2.58
2022-08-10T14:12:17.653Z,3.00
2022-08-10T14:14:52.695Z,2.83
2022-08-10T14:17:22.189Z,3.08
2022-08-10T14:19:51.576Z,4.25
2022-08-10T14:22:34.323Z,3.00
2022-08-10T14:25:12.866Z,2.95
2022-08-10T14:28:03.134Z,4.15
2022-08-10T14:30:32.126Z,3.00
2022-08-10T14:33:04.187Z,3.30
2022-08-10T14:36:21.326Z,2.95
2022-08-10T14:38:26.751Z,2.92
2022-08-10T14:40:56.916Z,3.08
2022-08-10T14:43:40.276Z,2.97
2022-08-10T14:46:11.103Z,3.03
2022-08-10T14:48:48.158Z,2.70
2022-08-10T14:51:17.946Z,2.88
2022-08-10T14:53:52.370Z,2.58
2022-08-10T14:56:29.802Z,2.72
2022-08-10T14:59:06.819Z,2.60
2022-08-10T15:02:01.173Z,2.30
2022-08-10T15:04:26.694Z,2.50
2022-08-10T15:07:03.800Z,2.55
2022-08-10T15:09:59.914Z,2.65
2022-08-10T15:12:48.470Z,2.70
2022-08-10T15:15:27.990Z,2.58
2022-08-10T15:17:57.875Z,2.70
2022-08-10T15:20:27.445Z,3.03
2022-08-10T15:23:00.902Z,2.50
2022-08-10T15:25:29.092Z,2.90
2022-08-10T15:28:11.235Z,2.65
2022-08-10T15:30:42.852Z,2.95
2022-08-10T15:33:59.310Z,2.78
2022-08-10T15:36:41.731Z,2.85
2022-08-10T15:40:20.614Z,2.60
2022-08-10T15:42:20.944Z,2.65
2022-08-10T15:44:54.036Z,2.42
2022-08-10T15:47:45.182Z,2.33
2022-08-10T15:50:27.986Z,2.25
2022-08-10T15:53:01.915Z,2.78
2022-08-10T15:55:51.592Z,2.50
2022-08-10T15:58:23.790Z,2.50
2022-08-10T16:02:12.488Z,3.15
2022-08-10T16:04:43.617Z,2.58
2022-08-10T16:07:48.939Z,2.50
2022-08-10T16:10:26.097Z,2.70
2022-08-10T16:13:01.318Z,2.25
2022-08-10T16:15:30.270Z,2.53
2022-08-10T16:18:09.006Z,2.75
2022-08-10T16:20:55.531Z,2.92
2022-08-10T16:23:31.722Z,3.08
2022-08-10T16:26:13.604Z,2.40
2022-08-10T16:28:49.947Z,4.38
2022-08-10T16:31:22.550Z,2.80
2022-08-10T16:33:55.377Z,2.80
2022-08-10T16:36:28.939Z,3.40
2022-08-10T16:38:57.569Z,2.72
2022-08-10T16:42:03.869Z,3.00
2022-08-10T16:44:15.893Z,2.60
2022-08-10T16:46:45.201Z,2.80
2022-08-10T16:49:15.095Z,2.88
2022-08-10T16:51:47.124Z,2.83
2022-08-10T16:54:22.347Z,3.33
2022-08-10T16:56:52.850Z,3.20
2022-08-10T16:59:24.779Z,2.65
2022-08-10T17:01:54.150Z,3.45
2022-08-10T17:04:23.625Z,3.50
2022-08-10T17:06:59.733Z,2.85
2022-08-10T17:09:33.150Z,3.10
2022-08-10T17:12:05.487Z,2.80
2022-08-10T17:14:32.190Z,2.97
2022-08-10T17:17:05.779Z,2.65
2022-08-10T17:19:37.782Z,2.30
2022-08-10T17:22:11.753Z,2.72
2022-08-10T17:24:45.833Z,2.70
2022-08-10T17:28:03.000Z,2.55
2022-08-10T17:30:07.029Z,2.58
2022-08-10T17:32:45.653Z,2.40
2022-08-10T17:35:23.331Z,2.10
2022-08-10T17:38:10.015Z,2.50
2022-08-10T17:40:57.817Z,2.50
2022-08-10T17:44:01.107Z,2.50
2022-08-10T17:46:14.325Z,5.50
2022-08-10T17:48:42.864Z,7.10
2022-08-10T17:51:15.450Z,4.55
2022-08-10T17:53:52.001Z,4.40
2022-08-10T17:56:22.621Z,2.50
2022-08-10T17:58:53.720Z,2.40
2022-08-10T18:01:38.910Z,2.20
2022-08-10T18:04:17.213Z,2.42
2022-08-10T18:06:44.415Z,4.72
2022-08-10T18:09:24.115Z,6.18
2022-08-10T18:11:57.834Z,3.80
2022-08-10T18:14:29.935Z,5.68
2022-08-10T18:16:58.913Z,5.47
2022-08-10T18:19:29.888Z,4.82
2022-08-10T18:21:58.179Z,4.40
2022-08-10T18:24:27.143Z,4.00
2022-08-10T18:26:56.314Z,3.00
2022-08-10T18:29:27.534Z,2.35
2022-08-10T18:32:02.616Z,2.58
2022-08-10T18:34:31.648Z,2.60
2022-08-10T18:37:00.183Z,2.33
2022-08-10T18:39:36.315Z,2.10
2022-08-10T18:43:01.282Z,2.55
2022-08-10T18:45:32.307Z,3.00
2022-08-10T18:48:05.032Z,2.58
2022-08-10T18:50:37.653Z,2.65
2022-08-10T18:53:18.459Z,2.63
2022-08-10T18:56:09.315Z,2.60
2022-08-10T18:59:04.949Z,2.92
2022-08-10T19:02:01.565Z,4.30
2022-08-10T19:04:36.050Z,3.30
2022-08-10T19:07:02.523Z,2.80
2022-08-10T19:09:48.467Z,2.92
2022-08-10T19:12:33.775Z,2.80
2022-08-10T19:15:25.195Z,2.92
2022-08-10T19:18:20.009Z,3.00
2022-08-10T19:20:49.928Z,2.95
2022-08-10T19:23:22.274Z,3.13
2022-08-10T19:26:42.501Z,3.15
2022-08-10T19:29:05.081Z,2.92
2022-08-10T19:31:44.258Z,2.80
2022-08-10T19:34:21.771Z,2.88
2022-08-10T19:37:32.527Z,2.70
2022-08-10T19:40:44.196Z,2.67
2022-08-10T19:43:59.110Z,2.80
2022-08-10T19:46:35.664Z,3.65
2022-08-10T19:49:24.197Z,4.68
2022-08-10T19:52:11.534Z,2.65
2022-08-10T19:55:03.849Z,2.58
2022-08-10T19:57:38.407Z,2.92
2022-08-10T20:00:19.593Z,2.75
2022-08-10T20:02:59.683Z,3.03
2022-08-10T20:05:32.681Z,2.67
2022-08-10T20:08:17.823Z,2.75
2022-08-10T20:11:10.309Z,2.50
2022-08-10T20:14:09.334Z,2.65
2022-08-10T20:16:48.446Z,2.80
2022-08-10T20:19:53.229Z,2.60
2022-08-10T20:22:29.773Z,2.25
2022-08-10T20:25:22.788Z,2.20
2022-08-10T20:28:09.144Z,2.10
2022-08-10T20:30:39.782Z,2.70
2022-08-10T20:33:12.367Z,2.45
2022-08-10T20:36:07.855Z,2.33
2022-08-10T20:38:48.246Z,2.38
2022-08-10T20:41:31.678Z,2.65
2022-08-10T20:44:22.415Z,3.00
2022-08-10T20:47:00.343Z,3.00
2022-08-10T20:49:31.137Z,2.80
2022-08-10T20:52:02.161Z,3.78
2022-08-10T20:54:35.334Z,4.00
2022-08-10T20:57:56.206Z,2.90
2022-08-10T21:00:30.013Z,4.10
2022-08-10T21:03:27.296Z,4.50
2022-08-10T21:06:13.672Z,2.75
2022-08-10T21:09:02.150Z,2.30
2022-08-10T21:11:49.505Z,2.80
2022-08-10T21:14:32.439Z,2.50
2022-08-10T21:17:03.121Z,2.30
2022-08-10T21:22:44.972Z,2.65
2022-08-10T21:25:15.457Z,2.60
2022-08-10T21:25:41.910Z,2.47
2022-08-10T21:28:03.492Z,2.17
2022-08-10T21:30:55.245Z,2.60
2022-08-10T21:33:45.283Z,2.17
2022-08-10T21:36:27.270Z,2.53
2022-08-10T21:39:19.927Z,2.65
2022-08-10T21:42:16.957Z,2.47
2022-08-10T21:45:24.686Z,2.33
2022-08-10T21:48:57.622Z,2.30
2022-08-10T21:52:04.159Z,2.38
2022-08-10T21:55:09.977Z,2.55
2022-08-10T21:58:28.461Z,2.58
2022-08-10T22:01:39.167Z,2.58
2022-08-10T22:04:25.418Z,2.35
2022-08-10T22:07:11.165Z,2.55
2022-08-10T22:13:11.370Z,4.22
2022-08-10T22:16:10.470Z,2.40
2022-08-10T22:19:02.634Z,2.72
2022-08-10T22:22:27.815Z,2.40
2022-08-10T22:26:02.149Z,3.20
2022-08-10T22:28:48.565Z,5.22
2022-08-10T22:31:25.830Z,5.38
2022-08-10T22:32:15.412Z,4.20
2022-08-10T22:35:23.127Z,2.55
2022-08-10T22:38:34.184Z,2.90
2022-08-10T22:41:32.069Z,3.03
2022-08-10T22:44:19.477Z,3.05
2022-08-10T22:47:06.959Z,2.70
2022-08-10T22:49:34.440Z,2.90
2022-08-10T22:52:09.762Z,3.60
2022-08-10T22:55:06.904Z,3.00
2022-08-10T22:57:52.334Z,6.50
2022-08-10T23:00:31.395Z,1.02
2022-08-10T23:03:21.585Z,1.08
2022-08-10T23:05:57.677Z,1.38
2022-08-10T23:08:31.195Z,0.80
2022-08-10T23:11:04.561Z,0.90
2022-08-10T23:13:36.467Z,0.95
2022-08-10T23:16:33.375Z,1.05
2022-08-10T23:19:09.904Z,0.98
2022-08-10T23:22:03.876Z,0.70
2022-08-10T23:24:41.713Z,0.80
2022-08-10T23:27:37.373Z,1.42
2022-08-10T23:30:09.497Z,0.90
2022-08-10T23:32:42.352Z,0.90
2022-08-10T23:36:08.872Z,1.15
2022-08-10T23:38:04.826Z,1.40
2022-08-10T23:40:33.392Z,1.30
2022-08-10T23:43:02.184Z,1.00
2022-08-10T23:45:52.483Z,1.20
2022-08-10T23:48:23.400Z,1.00
2022-08-10T23:50:59.669Z,1.08
2022-08-10T23:53:30.230Z,0.95
2022-08-10T23:56:20.831Z,0.98
2022-08-10T23:58:50.249Z,0.98
